Time;durP1;ratioP1;P1;durP2;ratioP2;P2;SDS_P1;SDS_P2;PMS_P1;PMS_P2;Temp;Humidity;BMP_temperature;BMP_pressure;BME280_temperature;BME280_humidity;BME280_pressure;Samples;Min_cycle;Max_cycle;Signal;HPM_P1;HPM_P2
2022/04/24 00:01:56;;;;;;;9.60;5.03;;;;;;;19.18;38.20;100212.97;5085044;28;20129;-56
2022/04/24 00:04:23;;;;;;;9.20;4.78;;;;;;;19.26;38.49;100222.47;5089968;28;20036;-51
2022/04/24 00:06:53;;;;;;;6.43;4.53;;;;;;;19.35;38.72;100212.72;5077885;28;20101;-55
2022/04/24 00:09:20;;;;;;;9.77;5.77;;;;;;;19.31;38.07;100209.72;5088133;28;20262;-55
2022/04/24 00:11:46;;;;;;;9.60;5.20;;;;;;;19.38;37.90;100219.50;5084786;28;20269;-52
2022/04/24 00:14:12;;;;;;;7.55;4.45;;;;;;;19.36;38.21;100214.34;5080594;28;20270;-54
2022/04/24 00:16:39;;;;;;;8.13;4.83;;;;;;;19.26;39.56;100204.31;5091287;28;20113;-54
2022/04/24 00:19:05;;;;;;;6.73;4.80;;;;;;;19.41;38.06;100206.22;5074532;28;20032;-54
2022/04/24 00:21:31;;;;;;;6.93;4.97;;;;;;;19.11;39.25;100209.69;5082625;28;20276;-52
2022/04/24 00:23:57;;;;;;;10.57;5.88;;;;;;;19.10;39.06;100202.66;5075928;28;20024;-55
2022/04/24 00:26:23;;;;;;;11.35;5.60;;;;;;;19.08;38.56;100210.25;5083601;28;20048;-54
2022/04/24 00:28:48;;;;;;;8.93;4.93;;;;;;;19.04;39.54;100208.06;5065971;28;20088;-54
2022/04/24 00:31:14;;;;;;;9.32;5.65;;;;;;;18.86;40.00;100200.41;5061035;28;20044;-53
2022/04/24 00:33:39;;;;;;;9.57;5.70;;;;;;;19.08;39.20;100197.50;5065074;28;20044;-57
2022/04/24 00:36:05;;;;;;;8.77;4.90;;;;;;;18.98;38.81;100197.44;5059329;28;20033;-55
2022/04/24 00:38:37;;;;;;;6.82;5.15;;;;;;;18.92;38.83;100204.78;5061825;28;20056;-53
2022/04/24 00:41:03;;;;;;;7.00;5.13;;;;;;;18.80;40.91;100196.88;5065096;28;20033;-54
2022/04/24 00:43:29;;;;;;;8.43;4.70;;;;;;;18.86;40.02;100187.69;5066359;28;20286;-54
2022/04/24 00:46:39;;;;;;;7.03;4.90;;;;;;;18.84;41.97;100179.00;5066273;28;20273;-53
2022/04/24 00:49:07;;;;;;;6.10;4.80;;;;;;;18.80;39.88;100186.06;5063113;28;20286;-55
2022/04/24 00:51:33;;;;;;;8.47;5.50;;;;;;;18.67;39.76;100179.22;5059617;28;20358;-55
2022/04/24 00:54:00;;;;;;;7.40;5.35;;;;;;;18.58;40.72;100180.81;5070108;28;20267;-55
2022/04/24 00:56:30;;;;;;;9.82;5.68;;;;;;;18.44;39.82;100178.59;5056364;28;20131;-53
2022/04/24 00:59:03;;;;;;;174.67;68.33;;;;;;;18.54;40.48;100179.72;5060732;28;20059;-54
2022/04/24 01:01:29;;;;;;;8.73;5.85;;;;;;;18.37;40.93;100172.59;5065603;28;20301;-56
2022/04/24 01:03:59;;;;;;;8.00;5.60;;;;;;;18.43;40.02;100176.16;5068475;28;20030;-54
2022/04/24 01:06:27;;;;;;;9.55;6.38;;;;;;;18.44;40.68;100188.63;5056706;28;20057;-52
2022/04/24 01:08:52;;;;;;;7.87;5.50;;;;;;;18.43;40.78;100176.16;5056960;28;20029;-56
2022/04/24 01:11:17;;;;;;;11.40;5.78;;;;;;;18.36;41.26;100172.88;5069900;28;20387;-56
2022/04/24 01:13:43;;;;;;;9.20;6.13;;;;;;;18.31;41.02;100168.25;5083328;28;20028;-53
2022/04/24 01:16:08;;;;;;;6.87;5.03;;;;;;;18.27;41.60;100167.16;5080720;28;20067;-56
2022/04/24 01:18:36;;;;;;;11.25;5.85;;;;;;;18.20;41.07;100179.00;5090481;28;20036;-53
2022/04/24 01:21:09;;;;;;;12.82;7.05;;;;;;;17.94;41.77;100174.50;5077458;28;20040;-54
2022/04/24 01:23:38;;;;;;;11.25;6.30;;;;;;;18.04;42.07;100180.03;5085312;28;20033;-58
2022/04/24 01:26:05;;;;;;;9.52;6.70;;;;;;;17.67;42.39;100172.72;5085978;28;20044;-54
2022/04/24 01:28:31;;;;;;;9.30;6.60;;;;;;;17.76;42.08;100179.25;5077078;28;20056;-52
2022/04/24 01:30:56;;;;;;;7.87;6.00;;;;;;;17.63;42.53;100178.66;5073661;28;20044;-56
2022/04/24 01:33:21;;;;;;;9.90;7.03;;;;;;;17.60;43.00;100176.47;5080238;28;20041;-54
2022/04/24 01:35:47;;;;;;;11.60;6.87;;;;;;;17.79;42.91;100184.16;5083303;28;20052;-52
2022/04/24 01:38:12;;;;;;;10.97;6.73;;;;;;;17.80;43.04;100180.38;5087136;28;20063;-52
2022/04/24 01:40:37;;;;;;;15.53;7.10;;;;;;;17.79;43.17;100178.75;5076726;28;20045;-55
2022/04/24 01:43:03;;;;;;;9.10;6.10;;;;;;;17.84;43.52;100181.50;5088227;28;20039;-53
2022/04/24 01:45:28;;;;;;;12.87;7.03;;;;;;;17.63;43.64;100178.66;5081027;28;20043;-57
2022/04/24 01:47:53;;;;;;;15.00;7.50;;;;;;;17.55;43.88;100179.13;5082046;28;20056;-53
2022/04/24 01:50:19;;;;;;;10.03;7.03;;;;;;;17.44;44.19;100178.22;5073115;28;20104;-55
2022/04/24 01:52:44;;;;;;;11.43;7.97;;;;;;;17.57;44.04;100181.56;5074603;28;20044;-55
2022/04/24 01:55:09;;;;;;;14.00;7.80;;;;;;;17.67;44.19;100175.41;5089050;28;20100;-55
2022/04/24 01:57:35;;;;;;;12.37;7.33;;;;;;;17.51;44.21;100179.91;5081641;28;20033;-53
2022/04/24 02:00:00;;;;;;;11.33;7.47;;;;;;;18.30;44.77;100185.56;5081687;28;20033;-53
2022/04/24 02:02:25;;;;;;;11.67;7.60;;;;;;;17.47;44.92;100188.53;5088772;28;20043;-56
2022/04/24 02:04:51;;;;;;;11.73;8.07;;;;;;;17.68;44.56;100180.59;5084660;28;20040;-54
2022/04/24 02:07:16;;;;;;;11.03;7.10;;;;;;;17.60;45.23;100183.75;5087407;28;20041;-54
2022/04/24 02:09:42;;;;;;;11.07;7.93;;;;;;;17.59;45.14;100174.00;5082183;28;20040;-55
2022/04/24 02:12:08;;;;;;;9.73;7.43;;;;;;;17.45;45.66;100187.97;5070899;28;20033;-51
2022/04/24 02:14:33;;;;;;;12.77;7.50;;;;;;;17.44;46.35;100190.91;5058835;28;20315;-55
2022/04/24 02:16:58;;;;;;;11.33;6.77;;;;;;;17.42;46.43;100195.75;5061635;28;20061;-55
2022/04/24 02:19:24;;;;;;;12.10;8.20;;;;;;;17.27;46.92;100186.44;5075674;28;20039;-55
2022/04/24 02:21:49;;;;;;;14.73;7.28;;;;;;;17.34;47.29;100188.94;5075694;28;20044;-55
2022/04/24 02:24:15;;;;;;;12.57;8.13;;;;;;;17.32;47.25;100189.22;5073158;28;20040;-54
2022/04/24 02:26:41;;;;;;;9.93;7.60;;;;;;;17.37;47.50;100190.31;5092980;28;20036;-52
2022/04/24 02:29:06;;;;;;;13.70;8.27;;;;;;;17.21;48.03;100182.06;5075807;28;20033;-55
2022/04/24 02:31:31;;;;;;;13.23;8.20;;;;;;;17.23;48.16;100189.94;5075795;28;20060;-53
2022/04/24 02:33:57;;;;;;;13.75;7.43;;;;;;;17.19;49.35;100186.91;5076333;28;20036;-54
2022/04/24 02:36:23;;;;;;;17.80;8.67;;;;;;;17.36;48.61;100191.41;5091392;28;20083;-53
2022/04/24 02:38:48;;;;;;;12.90;8.37;;;;;;;17.40;48.54;100192.50;5079835;28;20278;-54
2022/04/24 02:41:13;;;;;;;15.20;8.40;;;;;;;17.08;49.36;100198.72;5091179;28;20037;-54
2022/04/24 02:43:39;;;;;;;11.47;7.73;;;;;;;17.32;49.37;100197.31;5076596;28;20093;-56
2022/04/24 02:46:04;;;;;;;15.37;7.73;;;;;;;17.19;49.57;100192.31;5071337;28;20033;-55
2022/04/24 02:48:29;;;;;;;14.27;7.90;;;;;;;17.06;50.31;100186.25;5084154;28;20067;-55
2022/04/24 02:50:55;;;;;;;15.03;8.17;;;;;;;16.63;52.21;100193.31;5092801;28;20070;-55
2022/04/24 02:53:20;;;;;;;13.60;7.80;;;;;;;16.76;52.17;100190.22;5082582;28;20028;-56
2022/04/24 02:55:46;;;;;;;12.17;7.93;;;;;;;16.84;52.56;100190.84;5086443;28;20052;-54
2022/04/24 02:58:11;;;;;;;14.03;8.20;;;;;;;16.82;52.63;100188.41;5088545;28;20278;-55
2022/04/24 03:00:42;;;;;;;11.23;7.90;;;;;;;16.75;53.64;100194.00;5079526;28;20036;-57
2022/04/24 03:03:08;;;;;;;11.20;7.78;;;;;;;16.81;53.66;100194.03;5091679;28;20033;-54
2022/04/24 03:05:34;;;;;;;12.40;7.63;;;;;;;16.94;53.01;100196.38;5083711;28;20107;-56
2022/04/24 03:08:00;;;;;;;14.35;6.45;;;;;;;16.87;53.38;100193.84;5084498;28;20025;-55
2022/04/24 03:10:25;;;;;;;15.87;7.70;;;;;;;16.54;54.97;100194.81;5090354;28;20040;-57
2022/04/24 03:12:51;;;;;;;11.63;7.80;;;;;;;16.67;54.50;100197.16;5078998;28;20061;-54
2022/04/24 03:15:16;;;;;;;12.50;7.80;;;;;;;16.76;54.47;100198.31;5090332;28;20036;-56
2022/04/24 03:17:43;;;;;;;14.57;8.82;;;;;;;16.60;55.47;100199.19;5084680;28;20075;-55
2022/04/24 03:20:11;;;;;;;12.63;7.13;;;;;;;16.82;55.73;100198.38;5075730;28;20105;-54
2022/04/24 03:22:36;;;;;;;13.27;8.20;;;;;;;16.90;55.08;100200.66;5072832;28;20040;-56
2022/04/24 03:25:04;;;;;;;12.65;7.97;;;;;;;16.73;55.65;100192.63;5092383;28;20089;-55
2022/04/24 03:27:29;;;;;;;13.27;7.75;;;;;;;16.70;56.15;100201.22;5082826;28;20071;-54
2022/04/24 03:29:55;;;;;;;12.87;8.00;;;;;;;16.65;56.61;100195.75;5084598;28;20033;-56
2022/04/24 03:32:20;;;;;;;14.15;7.13;;;;;;;16.48;57.12;100193.94;5089474;28;20533;-56
2022/04/24 03:34:46;;;;;;;14.43;7.87;;;;;;;16.64;56.66;100200.34;5077577;28;20037;-56
2022/04/24 03:37:11;;;;;;;18.20;8.70;;;;;;;16.51;56.65;100192.63;5080186;28;20039;-56
2022/04/24 03:39:37;;;;;;;12.07;7.85;;;;;;;16.41;58.60;100196.84;5079585;28;20037;-55
2022/04/24 03:42:06;;;;;;;13.10;7.73;;;;;;;16.47;57.56;100192.31;5075134;28;20105;-57
2022/04/24 03:44:33;;;;;;;17.23;8.75;;;;;;;16.56;56.92;100193.50;5090783;28;20029;-58
2022/04/24 03:46:59;;;;;;;12.90;8.50;;;;;;;16.33;58.00;100189.16;5077744;28;20124;-54
2022/04/24 03:49:26;;;;;;;9.23;6.50;;;;;;;16.42;57.55;100197.63;5081000;28;20116;-54
2022/04/24 03:51:53;;;;;;;14.82;7.25;;;;;;;16.31;58.11;100188.59;5084999;28;20081;-57
2022/04/24 03:54:19;;;;;;;12.88;6.82;;;;;;;16.30;58.66;100193.19;5074335;28;20044;-56
2022/04/24 03:56:45;;;;;;;12.60;7.60;;;;;;;16.13;59.34;100193.22;5074863;28;20044;-55
2022/04/24 03:59:10;;;;;;;12.43;7.17;;;;;;;16.11;59.43;100195.34;5090802;28;20032;-54
2022/04/24 04:01:36;;;;;;;11.93;8.15;;;;;;;16.16;59.37;100197.31;5075167;28;20037;-56
2022/04/24 04:04:02;;;;;;;12.70;7.90;;;;;;;16.27;58.70;100184.78;5085359;28;20070;-53
2022/04/24 04:06:28;;;;;;;13.88;6.28;;;;;;;16.19;59.89;100194.94;5079895;28;20041;-55
2022/04/24 04:08:54;;;;;;;17.50;7.43;;;;;;;15.89;60.82;100193.41;5091400;28;20044;-55
2022/04/24 04:11:19;;;;;;;12.30;7.27;;;;;;;16.05;60.85;100201.72;5080198;28;20024;-53
2022/04/24 04:13:45;;;;;;;12.17;8.13;;;;;;;15.79;61.12;100193.22;5085550;28;20056;-54
2022/04/24 04:16:10;;;;;;;16.03;7.57;;;;;;;16.01;59.82;100198.69;5087233;28;20269;-55
2022/04/24 04:18:36;;;;;;;13.25;6.68;;;;;;;16.07;60.57;100201.50;5078327;28;20041;-55
2022/04/24 04:21:01;;;;;;;12.63;6.77;;;;;;;15.91;61.23;100202.09;5091347;28;20085;-55
2022/04/24 04:23:27;;;;;;;10.13;5.60;;;;;;;16.41;58.53;100210.31;5081098;28;20028;-56
2022/04/24 04:25:52;;;;;;;11.23;5.60;;;;;;;16.18;59.68;100203.25;5084184;28;20045;-51
2022/04/24 04:28:18;;;;;;;11.63;6.30;;;;;;;16.16;59.32;100203.53;5088091;28;20120;-54
2022/04/24 04:30:43;;;;;;;11.87;5.57;;;;;;;15.94;61.05;100205.34;5077570;28;20056;-53
2022/04/24 04:33:09;;;;;;;12.30;7.35;;;;;;;16.14;60.26;100210.22;5090082;28;20032;-54
2022/04/24 04:35:36;;;;;;;10.73;7.00;;;;;;;16.11;59.03;100208.81;5074190;28;20032;-52
2022/04/24 04:38:02;;;;;;;12.40;7.43;;;;;;;15.95;59.40;100209.69;5085823;28;20272;-54
2022/04/24 04:40:28;;;;;;;11.30;6.95;;;;;;;16.15;58.19;100210.00;5078972;28;20033;-55
2022/04/24 04:42:53;;;;;;;10.23;6.72;;;;;;;15.82;60.05;100208.13;5090051;28;20033;-55
2022/04/24 04:45:19;;;;;;;10.80;7.13;;;;;;;17.74;54.63;100211.16;5079800;28;20114;-55
2022/04/24 04:47:47;;;;;;;13.67;6.20;;;;;;;16.10;57.21;100204.50;5084979;28;20049;-55
2022/04/24 04:50:12;;;;;;;16.65;6.68;;;;;;;16.00;58.78;100210.56;5086866;28;20062;-53
2022/04/24 04:52:38;;;;;;;12.05;6.65;;;;;;;16.07;59.08;100213.09;5078114;28;20492;-53
2022/04/24 04:55:04;;;;;;;11.37;6.93;;;;;;;15.95;58.93;100217.78;5090348;28;20113;-56
2022/04/24 04:57:31;;;;;;;10.63;6.90;;;;;;;15.90;59.21;100222.00;5081071;28;20040;-53
2022/04/24 04:59:56;;;;;;;13.73;6.65;;;;;;;16.07;58.63;100223.88;5083304;28;20045;-55
2022/04/24 05:02:22;;;;;;;11.33;6.70;;;;;;;15.91;58.97;100229.06;5087835;28;20103;-53
2022/04/24 05:04:48;;;;;;;9.65;6.07;;;;;;;15.78;60.44;100229.34;5077365;28;20029;-55
2022/04/24 05:07:14;;;;;;;10.07;6.20;;;;;;;15.75;60.34;100229.84;5089423;28;20040;-52
2022/04/24 05:09:39;;;;;;;12.20;6.43;;;;;;;15.77;59.15;100231.22;5082142;28;20062;-56
2022/04/24 05:12:07;;;;;;;10.73;5.87;;;;;;;16.03;59.20;100237.06;5082504;28;20051;-54
2022/04/24 05:14:32;;;;;;;16.27;6.80;;;;;;;15.90;59.63;100238.19;5088991;28;20281;-56
2022/04/24 05:16:58;;;;;;;10.05;6.03;;;;;;;15.78;60.18;100246.31;5074794;28;20104;-53
2022/04/24 05:19:25;;;;;;;15.40;7.95;;;;;;;15.89;59.56;100250.03;5079909;28;20107;-54
2022/04/24 05:21:51;;;;;;;10.60;6.93;;;;;;;15.71;60.23;100242.19;5084197;28;20033;-51
2022/04/24 05:24:17;;;;;;;10.43;6.20;;;;;;;15.38;60.71;100249.97;5073615;28;20037;-52
2022/04/24 05:26:42;;;;;;;12.97;6.40;;;;;;;15.99;60.21;100253.97;5090675;28;20036;-55
2022/04/24 05:29:08;;;;;;;11.47;5.23;;;;;;;16.09;58.51;100251.41;5073882;28;20028;-56
2022/04/24 05:31:33;;;;;;;15.13;7.10;;;;;;;16.17;58.16;100253.72;5073638;28;20066;-54
2022/04/24 05:33:59;;;;;;;14.80;7.73;;;;;;;16.23;56.95;100267.28;5084458;28;20040;-55
2022/04/24 05:36:24;;;;;;;14.60;7.20;;;;;;;16.23;56.95;100261.88;5079764;28;20043;-56
2022/04/24 05:38:50;;;;;;;10.07;6.20;;;;;;;16.25;57.02;100263.25;5074426;28;20064;-54
2022/04/24 05:41:15;;;;;;;13.37;6.60;;;;;;;16.24;56.90;100266.19;5089263;28;20269;-56
2022/04/24 05:43:41;;;;;;;15.37;8.13;;;;;;;16.36;55.93;100266.91;5081420;28;20039;-53
2022/04/24 05:46:06;;;;;;;14.93;8.13;;;;;;;16.31;56.56;100273.06;5081995;28;20036;-57
2022/04/24 05:48:32;;;;;;;16.98;8.30;;;;;;;16.43;56.27;100277.53;5088617;28;20067;-58
2022/04/24 05:50:57;;;;;;;8.87;4.33;;;;;;;16.29;57.93;100277.91;5076898;28;20083;-54
2022/04/24 05:53:23;;;;;;;13.10;7.63;;;;;;;16.46;55.58;100285.97;5088370;28;20044;-55
2022/04/24 05:55:49;;;;;;;10.87;7.00;;;;;;;16.34;54.75;100279.81;5064994;28;20029;-56
2022/04/24 05:58:14;;;;;;;10.97;6.17;;;;;;;16.36;55.10;100277.69;5062545;28;20029;-57
2022/04/24 06:00:40;;;;;;;9.43;5.77;;;;;;;16.23;55.86;100280.75;5063122;28;20045;-56
2022/04/24 06:03:06;;;;;;;11.93;6.38;;;;;;;16.65;54.99;100285.69;5063789;28;20032;-57
2022/04/24 06:05:31;;;;;;;17.17;6.87;;;;;;;16.58;55.00;100285.03;5064884;28;20056;-55
2022/04/24 06:07:56;;;;;;;13.23;7.50;;;;;;;16.81;55.00;100280.44;5061832;28;20277;-55
2022/04/24 06:10:22;;;;;;;11.00;6.43;;;;;;;16.84;54.06;100278.06;5060349;28;20173;-53
2022/04/24 06:12:49;;;;;;;7.97;5.27;;;;;;;16.60;54.08;100281.00;5058573;28;20037;-56
2022/04/24 06:15:17;;;;;;;10.35;5.72;;;;;;;16.67;53.34;100272.75;5065202;28;20036;-56
2022/04/24 06:17:43;;;;;;;9.00;5.57;;;;;;;16.68;53.92;100279.78;5088660;28;20053;-51
2022/04/24 06:20:10;;;;;;;8.90;5.72;;;;;;;16.72;52.99;100278.19;5088941;28;20035;-55
2022/04/24 06:23:01;;;;;;;8.88;5.97;;;;;;;16.86;53.57;100278.63;5081304;28;20064;-55
2022/04/24 06:25:32;;;;;;;12.65;6.95;;;;;;;16.92;52.32;100283.03;5075408;28;20051;-54
2022/04/24 06:27:58;;;;;;;8.15;5.47;;;;;;;16.90;52.76;100281.66;5087013;28;20045;-52
2022/04/24 06:30:26;;;;;;;9.18;5.55;;;;;;;16.90;52.48;100281.66;5082782;28;20060;-53
2022/04/24 06:32:52;;;;;;;11.98;5.55;;;;;;;17.26;52.20;100287.50;5093222;28;20039;-53
2022/04/24 06:35:19;;;;;;;11.38;6.80;;;;;;;17.38;51.58;100289.25;5081432;28;20043;-56
2022/04/24 06:37:48;;;;;;;9.90;6.55;;;;;;;17.30;51.42;100287.81;5087865;28;20060;-52
2022/04/24 06:40:15;;;;;;;11.05;6.05;;;;;;;17.44;51.18;100294.47;5088903;28;20099;-55
2022/04/24 06:42:48;;;;;;;12.43;6.53;;;;;;;17.40;51.08;100284.41;5080518;28;20097;-55
2022/04/24 06:45:15;;;;;;;11.25;6.57;;;;;;;17.33;50.61;100295.41;5064429;28;20058;-55
2022/04/24 06:47:42;;;;;;;14.88;6.55;;;;;;;17.47;50.50;100298.53;5088131;28;20075;-50
2022/04/24 06:50:08;;;;;;;10.55;6.70;;;;;;;17.61;50.40;100302.47;5088267;28;20039;-56
2022/04/24 06:52:33;;;;;;;10.60;6.05;;;;;;;17.56;50.30;100304.28;5081144;28;20033;-53
2022/04/24 06:55:00;;;;;;;7.15;5.90;;;;;;;17.79;49.50;100289.66;5092677;28;20217;-55
2022/04/24 06:57:26;;;;;;;15.98;6.28;;;;;;;17.88;48.94;100303.50;5076165;28;20041;-55
2022/04/24 06:59:51;;;;;;;7.78;5.45;;;;;;;17.91;48.34;100305.69;5084942;28;20100;-56
2022/04/24 07:02:16;;;;;;;6.70;4.33;;;;;;;17.62;49.84;100303.25;5082302;28;20063;-52
2022/04/24 07:04:42;;;;;;;7.95;5.32;;;;;;;17.73;49.54;100306.88;5092005;28;20032;-55
2022/04/24 07:07:07;;;;;;;8.40;6.17;;;;;;;17.42;48.96;100303.88;5078811;28;20041;-57
2022/04/24 07:09:33;;;;;;;9.80;6.15;;;;;;;17.80;49.60;100302.09;5089294;28;20037;-56
2022/04/24 07:11:59;;;;;;;8.90;6.20;;;;;;;17.61;48.40;100307.88;5086003;28;20029;-55
2022/04/24 07:14:24;;;;;;;12.37;6.67;;;;;;;17.90;48.55;100299.47;5081944;28;20289;-55
2022/04/24 07:16:50;;;;;;;9.82;5.15;;;;;;;17.66;48.69;100314.38;5088013;28;20033;-56
2022/04/24 07:19:15;;;;;;;11.07;6.60;;;;;;;17.77;48.76;100305.31;5079430;28;20036;-56
2022/04/24 07:21:41;;;;;;;10.23;5.82;;;;;;;17.94;48.09;100305.19;5087807;28;20033;-53
2022/04/24 07:24:07;;;;;;;;;;;;;;;18.04;47.30;100318.81;5085545;28;20047;-56
2022/04/24 07:26:32;;;;;;;8.57;5.80;;;;;;;18.22;47.39;100305.13;5063811;28;19909;-53
2022/04/24 07:28:58;;;;;;;7.67;4.67;;;;;;;18.33;47.48;100315.75;5071970;28;20033;-56
2022/04/24 07:31:23;;;;;;;9.50;5.03;;;;;;;18.45;47.74;100312.06;5060558;28;20285;-57
2022/04/24 07:33:49;;;;;;;13.27;6.10;;;;;;;18.56;46.82;100315.66;5066141;28;20096;-58
2022/04/24 07:36:15;;;;;;;22.57;11.27;;;;;;;18.96;45.49;100324.25;5059026;28;20056;-57
2022/04/24 07:38:41;;;;;;;;;;;;;;;18.53;46.25;100316.97;5065691;28;20033;-56
2022/04/24 07:41:07;;;;;;;8.93;5.13;;;;;;;18.80;45.78;100321.47;5069826;28;19922;-55
2022/04/24 07:43:33;;;;;;;8.50;5.43;;;;;;;18.88;44.97;100323.69;5061509;28;20313;-57
2022/04/24 07:45:58;;;;;;;19.05;8.38;;;;;;;19.02;44.94;100323.22;5066739;28;20033;-54
2022/04/24 07:48:25;;;;;;;10.10;5.37;;;;;;;19.09;44.59;100329.22;5069769;28;20109;-54
2022/04/24 07:50:51;;;;;;;11.07;6.33;;;;;;;19.06;45.17;100335.97;5065857;28;20033;-58
2022/04/24 07:53:18;;;;;;;10.48;6.55;;;;;;;18.98;44.76;100324.78;5068809;28;20268;-52
2022/04/24 07:55:45;;;;;;;9.67;6.63;;;;;;;19.12;44.56;100328.69;5059662;28;20041;-57
2022/04/24 07:58:11;;;;;;;10.80;5.50;;;;;;;19.14;44.75;100325.69;5059950;28;20281;-57
2022/04/24 08:00:38;;;;;;;10.65;5.85;;;;;;;19.19;43.95;100325.72;5065140;28;20294;-57
2022/04/24 08:03:05;;;;;;;9.80;5.65;;;;;;;19.23;44.37;100332.25;5067267;28;20048;-56
2022/04/24 08:05:33;;;;;;;7.80;4.87;;;;;;;19.58;43.40;100330.69;5069181;28;20033;-56
2022/04/24 08:08:04;;;;;;;10.37;6.47;;;;;;;19.78;43.11;100332.63;5065629;28;20281;-57
2022/04/24 08:10:32;;;;;;;8.03;5.10;;;;;;;19.77;43.37;100335.59;5086521;28;20355;-56
2022/04/24 08:12:58;;;;;;;10.40;5.17;;;;;;;19.66;43.44;100332.06;5075755;28;20281;-57
2022/04/24 08:15:23;;;;;;;14.07;7.10;;;;;;;19.78;43.17;100340.78;5088947;28;20302;-57
2022/04/24 08:17:49;;;;;;;9.90;6.00;;;;;;;20.15;42.68;100333.50;5081692;28;20040;-52
2022/04/24 08:20:16;;;;;;;11.50;5.20;;;;;;;19.87;43.01;100335.63;5082155;28;20044;-55
2022/04/24 08:22:45;;;;;;;;;;;;;;;20.14;42.07;100340.00;5090546;28;20530;-53
2022/04/24 08:25:14;;;;;;;10.03;5.53;;;;;;;20.40;41.99;100345.41;5077624;28;19923;-56
2022/04/24 08:27:39;;;;;;;10.17;5.57;;;;;;;20.35;41.26;100342.72;5086936;28;20300;-57
2022/04/24 08:30:07;;;;;;;11.47;7.17;;;;;;;20.44;41.13;100342.97;5084892;28;20261;-56
2022/04/24 08:32:33;;;;;;;11.70;6.67;;;;;;;20.66;40.83;100348.09;5079358;28;20033;-54
2022/04/24 08:35:00;;;;;;;10.38;6.55;;;;;;;20.55;40.74;100347.28;5090438;28;20273;-57
2022/04/24 08:37:27;;;;;;;10.63;6.95;;;;;;;20.78;40.51;100340.47;5073789;28;20037;-58
2022/04/24 08:39:53;;;;;;;9.70;6.20;;;;;;;20.62;40.90;100338.84;5073564;28;20052;-54
2022/04/24 08:42:21;;;;;;;8.93;5.80;;;;;;;20.78;40.77;100343.16;5086296;28;20289;-56
2022/04/24 08:44:51;;;;;;;10.90;6.87;;;;;;;20.95;40.50;100335.81;5077203;28;20049;-55
2022/04/24 08:47:19;;;;;;;11.13;6.80;;;;;;;21.21;40.04;100344.66;5061852;28;20269;-57
2022/04/24 08:49:45;;;;;;;12.10;6.60;;;;;;;20.82;39.75;100342.66;5086180;28;20308;-56
2022/04/24 08:52:11;;;;;;;;;;;;;;;21.08;40.11;100346.06;5085278;28;20270;-52
2022/04/24 08:54:41;;;;;;;9.83;6.03;;;;;;;21.38;38.94;100348.94;5078788;28;19972;-57
2022/04/24 08:57:11;;;;;;;11.80;5.83;;;;;;;21.59;38.28;100353.16;5073498;28;20341;-58
2022/04/24 08:59:38;;;;;;;12.37;6.47;;;;;;;21.85;38.66;100349.50;5080199;28;20276;-56
2022/04/24 09:02:05;;;;;;;12.75;6.78;;;;;;;21.99;38.22;100349.66;5082993;28;20281;-58
2022/04/24 09:04:34;;;;;;;10.93;7.13;;;;;;;22.08;37.05;100350.66;5087774;28;20037;-57
2022/04/24 09:07:03;;;;;;;15.83;8.80;;;;;;;22.15;37.69;100353.06;5076817;28;20296;-56
2022/04/24 09:09:34;;;;;;;16.23;6.27;;;;;;;22.04;37.91;100357.78;5088410;28;20336;-58
2022/04/24 09:12:12;;;;;;;12.70;7.03;;;;;;;22.64;37.05;100348.53;5083431;28;20273;-58
2022/04/24 09:14:39;;;;;;;9.20;5.37;;;;;;;22.84;37.07;100363.84;5078350;28;20258;-57
2022/04/24 09:17:21;;;;;;;9.13;6.10;;;;;;;23.04;35.39;100357.34;5073723;28;20048;-57
2022/04/24 09:19:47;;;;;;;7.57;5.40;;;;;;;23.56;34.94;100350.44;5058931;28;20033;-57
2022/04/24 09:22:14;;;;;;;7.53;5.15;;;;;;;24.13;35.06;100350.38;5052741;28;20067;-58
2022/04/24 09:24:47;;;;;;;11.93;6.28;;;;;;;24.98;33.28;100365.81;5083943;28;20036;-57
2022/04/24 09:27:25;;;;;;;7.83;5.50;;;;;;;25.40;32.46;100363.00;5076528;28;20039;-56
2022/04/24 09:29:54;;;;;;;9.13;5.27;;;;;;;25.72;31.51;100366.72;5087765;28;20048;-56
2022/04/24 09:32:20;;;;;;;10.70;4.40;;;;;;;26.14;31.35;100366.53;5090328;28;20430;-57
2022/04/24 09:34:46;;;;;;;7.20;5.23;;;;;;;26.71;29.97;100367.78;5078778;28;20100;-56
2022/04/24 09:37:12;;;;;;;8.97;5.57;;;;;;;27.39;29.38;100368.66;5077093;28;20033;-56
2022/04/24 09:39:38;;;;;;;;;;;;;;;27.96;28.73;100369.66;5072068;28;20053;-57
2022/04/24 09:42:12;;;;;;;8.20;5.43;;;;;;;28.62;27.38;100369.34;5077400;28;19923;-54
2022/04/24 09:44:49;;;;;;;7.70;5.50;;;;;;;28.97;27.44;100365.63;5074074;28;20034;-57
2022/04/24 09:47:17;;;;;;;6.70;4.00;;;;;;;29.24;27.05;100366.28;5093417;28;20032;-59
2022/04/24 09:49:50;;;;;;;9.70;6.30;;;;;;;29.54;27.28;100363.50;5084213;28;20032;-57
2022/04/24 09:52:18;;;;;;;5.47;3.70;;;;;;;29.93;26.17;100368.03;5083839;28;20029;-57
2022/04/24 09:54:49;;;;;;;5.07;4.07;;;;;;;29.95;25.89;100376.75;5093165;28;20090;-57
2022/04/24 09:57:16;;;;;;;9.73;5.07;;;;;;;30.00;25.28;100373.81;5079731;28;20035;-56
2022/04/24 09:59:43;;;;;;;7.00;5.20;;;;;;;30.71;24.67;100379.38;5089803;28;20033;-57
2022/04/24 10:02:11;;;;;;;8.32;5.47;;;;;;;31.10;24.15;100374.31;5086542;28;20062;-56
2022/04/24 10:04:38;;;;;;;8.38;5.00;;;;;;;30.81;24.76;100369.84;5082846;28;20042;-57
2022/04/24 10:07:11;;;;;;;8.07;4.60;;;;;;;30.95;23.68;100370.31;5064528;28;20040;-58
2022/04/24 10:09:44;;;;;;;7.00;5.30;;;;;;;30.76;24.77;100371.69;5085528;28;20155;-58
2022/04/24 10:12:14;;;;;;;8.15;5.07;;;;;;;31.66;23.52;100375.56;5085361;28;20033;-58
2022/04/24 10:14:46;;;;;;;8.32;5.28;;;;;;;31.44;23.43;100382.47;5090500;28;20039;-58
2022/04/24 10:17:40;;;;;;;7.55;4.63;;;;;;;32.01;23.09;100385.25;5078427;28;20099;-57
2022/04/24 10:20:25;;;;;;;7.95;5.05;;;;;;;32.42;21.31;100377.66;5083539;28;20080;-57
2022/04/24 10:22:55;;;;;;;7.93;4.75;;;;;;;32.19;22.70;100383.78;5093169;28;20054;-57
2022/04/24 10:25:35;;;;;;;8.25;4.68;;;;;;;32.28;22.24;100380.84;5064881;28;20028;-58
2022/04/24 10:28:10;;;;;;;9.18;4.80;;;;;;;32.46;21.32;100386.84;5085672;28;20035;-58
2022/04/24 10:30:36;;;;;;;8.63;4.20;;;;;;;33.00;21.53;100386.59;5089228;28;20041;-59
2022/04/24 10:33:15;;;;;;;12.13;4.78;;;;;;;33.10;20.25;100385.22;5078703;28;20174;-57
2022/04/24 10:35:54;;;;;;;6.93;4.57;;;;;;;33.43;20.75;100397.84;5088252;28;20048;-58
2022/04/24 10:38:21;;;;;;;6.90;4.70;;;;;;;33.30;20.70;100388.81;5075395;28;20033;-58
2022/04/24 10:41:03;;;;;;;7.70;5.00;;;;;;;33.57;20.29;100387.06;5074520;28;20016;-58
2022/04/24 10:43:38;;;;;;;5.72;3.67;;;;;;;33.13;21.00;100385.31;5066002;28;20059;-56
2022/04/24 10:46:15;;;;;;;5.55;4.40;;;;;;;33.35;20.02;100398.81;5086327;28;20037;-57
2022/04/24 10:48:41;;;;;;;7.75;4.13;;;;;;;33.88;20.93;100393.59;5090854;28;20041;-59
2022/04/24 10:51:06;;;;;;;7.22;4.53;;;;;;;34.72;19.58;100389.59;5079577;28;20092;-56
2022/04/24 10:53:49;;;;;;;7.28;5.07;;;;;;;34.89;19.07;100389.03;5090605;28;20032;-58
2022/04/24 10:56:15;;;;;;;7.63;3.95;;;;;;;33.98;19.84;100391.44;5087150;28;20037;-59
2022/04/24 10:58:41;;;;;;;7.32;4.45;;;;;;;32.33;20.96;100388.13;5080512;28;20112;-58
2022/04/24 11:01:13;;;;;;;5.47;4.15;;;;;;;34.10;20.47;100391.28;5077296;28;20504;-57
2022/04/24 11:03:41;;;;;;;9.10;3.78;;;;;;;35.27;19.09;100391.19;5088554;28;20111;-59
2022/04/24 11:06:18;;;;;;;7.93;4.53;;;;;;;35.45;20.26;100391.41;5084454;28;20035;-57
2022/04/24 11:08:44;;;;;;;6.60;3.75;;;;;;;35.50;18.68;100393.84;5079652;28;20305;-59
2022/04/24 11:11:13;;;;;;;8.73;4.57;;;;;;;36.23;17.83;100389.16;5090665;28;20028;-59
2022/04/24 11:13:38;;;;;;;5.20;3.28;;;;;;;36.42;17.47;100391.69;5079723;28;20032;-60
2022/04/24 11:16:04;;;;;;;4.32;3.42;;;;;;;36.43;17.31;100396.09;5083822;28;20048;-59
2022/04/24 11:18:30;;;;;;;4.95;3.50;;;;;;;36.72;17.12;100396.34;5086946;28;20051;-59
2022/04/24 11:20:58;;;;;;;4.82;3.60;;;;;;;37.11;17.08;100389.47;5076552;28;20139;-60
2022/04/24 11:23:32;;;;;;;4.38;3.22;;;;;;;36.66;16.67;100383.19;5089905;28;20033;-59